Time;durP1;ratioP1;P1;durP2;ratioP2;P2;SDS_P1;SDS_P2;PMS_P1;PMS_P2;Temp;Humidity;BMP_temperature;BMP_pressure;BME280_temperature;BME280_humidity;BME280_pressure;Samples;Min_cycle;Max_cycle;Signal;HPM_P1;HPM_P2
2022/06/14 00:02:29;;;;;;;;;;;22.10;45.90;;;;;;457248;260;2147;-72
2022/06/14 00:04:32;;;;;;;;;;;22.10;46.10;;;;;;457294;259;1165;-72
2022/06/14 00:06:32;;;;;;;;;;;22.10;45.90;;;;;;457114;257;1487;-72
2022/06/14 00:08:34;;;;;;;;;;;22.10;46.00;;;;;;457207;260;1123;-73
2022/06/14 00:10:35;;;;;;;;;;;22.00;46.10;;;;;;457342;259;1116;-72
2022/06/14 00:12:36;;;;;;;;;;;22.00;46.20;;;;;;457256;260;1226;-72
2022/06/14 00:14:37;;;;;;;;;;;22.00;46.30;;;;;;457305;259;1202;-72
2022/06/14 00:16:39;;;;;;;;;;;22.00;46.30;;;;;;457268;259;1309;-72
2022/06/14 00:18:40;;;;;;;;;;;21.90;46.40;;;;;;457213;260;1015;-72
2022/06/14 00:20:42;;;;;;;;;;;21.90;46.40;;;;;;457318;260;1008;-72
2022/06/14 00:22:43;;;;;;;;;;;22.00;46.20;;;;;;457311;259;2127;-72
2022/06/14 00:24:44;;;;;;;;;;;22.10;46.10;;;;;;457295;260;1095;-72
2022/06/14 00:26:45;;;;;;;;;;;22.10;46.00;;;;;;457243;259;1097;-72
2022/06/14 00:28:47;;;;;;;;;;;22.00;46.10;;;;;;457280;260;972;-72
2022/06/14 00:30:48;;;;;;;;;;;22.00;46.30;;;;;;457275;260;1192;-72
2022/06/14 00:32:50;;;;;;;;;;;22.10;46.00;;;;;;457304;259;1071;-72
2022/06/14 00:34:51;;;;;;;;;;;21.90;46.50;;;;;;457323;259;1078;-72
2022/06/14 00:36:52;;;;;;;;;;;21.80;46.40;;;;;;457183;259;1069;-73
2022/06/14 00:38:53;;;;;;;;;;;21.90;46.20;;;;;;457336;259;1086;-73
2022/06/14 00:40:55;;;;;;;;;;;21.90;46.30;;;;;;457308;260;1151;-72
2022/06/14 00:42:57;;;;;;;;;;;22.00;46.30;;;;;;457251;260;2213;-72
2022/06/14 00:44:58;;;;;;;;;;;22.10;46.10;;;;;;457399;260;1253;-72
2022/06/14 00:46:59;;;;;;;;;;;22.00;46.10;;;;;;457320;259;1212;-72
2022/06/14 00:49:01;;;;;;;;;;;22.00;46.30;;;;;;457293;260;1124;-72
2022/06/14 00:51:02;;;;;;;;;;;22.20;45.80;;;;;;457172;259;1337;-72
2022/06/14 00:53:03;;;;;;;;;;;22.10;45.80;;;;;;457182;260;1220;-72
2022/06/14 00:55:05;;;;;;;;;;;22.20;45.80;;;;;;457218;259;1177;-72
2022/06/14 00:57:06;;;;;;;;;;;22.20;45.80;;;;;;457189;260;1242;-72
2022/06/14 00:59:07;;;;;;;;;;;22.10;45.70;;;;;;457401;259;1246;-72
2022/06/14 01:01:08;;;;;;;;;;;22.10;45.90;;;;;;457244;260;1479;-72
2022/06/14 01:03:10;;;;;;;;;;;22.10;45.80;;;;;;457397;259;2135;-72
2022/06/14 01:05:11;;;;;;;;;;;22.00;46.00;;;;;;457275;259;1290;-73
2022/06/14 01:07:12;;;;;;;;;;;22.10;45.90;;;;;;457140;260;1208;-72
2022/06/14 01:09:14;;;;;;;;;;;22.10;45.90;;;;;;457354;259;1149;-72
2022/06/14 01:11:15;;;;;;;;;;;22.00;46.20;;;;;;457198;260;1221;-72
2022/06/14 01:13:16;;;;;;;;;;;22.00;46.00;;;;;;457276;260;1129;-72
2022/06/14 01:15:18;;;;;;;;;;;22.00;46.00;;;;;;457218;259;1121;-72
2022/06/14 01:17:19;;;;;;;;;;;21.90;46.20;;;;;;457124;260;1118;-72
2022/06/14 01:19:20;;;;;;;;;;;22.10;46.00;;;;;;457262;259;981;-72
2022/06/14 01:21:22;;;;;;;;;;;22.00;45.90;;;;;;457201;260;1056;-72
2022/06/14 01:23:23;;;;;;;;;;;22.00;46.10;;;;;;457147;260;2206;-73
2022/06/14 01:25:24;;;;;;;;;;;22.00;46.00;;;;;;457205;259;1073;-72
2022/06/14 01:27:26;;;;;;;;;;;22.00;46.00;;;;;;457262;260;1054;-72
2022/06/14 01:29:27;;;;;;;;;;;22.10;45.90;;;;;;457223;259;1065;-72
2022/06/14 01:31:29;;;;;;;;;;;22.00;46.00;;;;;;457168;259;1232;-72
2022/06/14 01:33:30;;;;;;;;;;;21.90;46.00;;;;;;457245;260;1086;-72
2022/06/14 01:35:32;;;;;;;;;;;21.90;46.10;;;;;;457202;260;1189;-72
2022/06/14 01:37:33;;;;;;;;;;;21.90;46.20;;;;;;457096;260;1422;-72
2022/06/14 01:39:34;;;;;;;;;;;21.80;46.20;;;;;;457306;260;1391;-72
2022/06/14 01:41:35;;;;;;;;;;;21.80;46.50;;;;;;457260;259;970;-72
2022/06/14 01:43:37;;;;;;;;;;;21.80;46.60;;;;;;457260;260;2147;-72
2022/06/14 01:45:38;;;;;;;;;;;21.90;46.30;;;;;;457339;259;1136;-72
2022/06/14 01:47:39;;;;;;;;;;;21.90;46.30;;;;;;457200;259;1233;-72
2022/06/14 01:52:07;;;;;;;;;;;21.90;46.20;;;;;;448518;260;1280;-72
2022/06/14 01:54:09;;;;;;;;;;;22.00;46.20;;;;;;457264;259;1243;-72
2022/06/14 01:56:10;;;;;;;;;;;21.90;46.00;;;;;;457226;260;1400;-72
2022/06/14 01:58:11;;;;;;;;;;;21.90;46.10;;;;;;457281;260;1123;-72
2022/06/14 02:00:13;;;;;;;;;;;22.00;46.10;;;;;;457255;259;1253;-72
2022/06/14 02:02:14;;;;;;;;;;;21.80;46.30;;;;;;457196;260;1215;-72
2022/06/14 02:06:48;;;;;;;;;;;21.80;46.50;;;;;;444547;260;1274;-72
2022/06/14 02:08:49;;;;;;;;;;;21.80;46.30;;;;;;457228;260;1188;-72
2022/06/14 02:10:50;;;;;;;;;;;21.80;46.40;;;;;;457255;259;1209;-72
2022/06/14 02:12:52;;;;;;;;;;;21.70;46.50;;;;;;457300;259;1228;-72
2022/06/14 02:14:53;;;;;;;;;;;21.80;46.30;;;;;;457229;259;1165;-72
2022/06/14 02:16:54;;;;;;;;;;;21.90;46.20;;;;;;457238;260;1079;-73
2022/06/14 02:18:56;;;;;;;;;;;21.90;46.00;;;;;;457237;259;1113;-72
2022/06/14 02:20:57;;;;;;;;;;;21.80;46.10;;;;;;457302;260;1169;-72
2022/06/14 02:22:58;;;;;;;;;;;21.80;46.20;;;;;;457344;259;2230;-72
2022/06/14 02:25:00;;;;;;;;;;;21.80;46.40;;;;;;457320;260;1019;-72
2022/06/14 02:27:01;;;;;;;;;;;21.80;46.20;;;;;;457308;260;1253;-72
2022/06/14 02:29:02;;;;;;;;;;;21.90;46.10;;;;;;457352;260;1061;-72
2022/06/14 02:31:04;;;;;;;;;;;21.80;46.10;;;;;;457266;260;1327;-72
2022/06/14 02:33:05;;;;;;;;;;;21.90;45.80;;;;;;457338;259;1132;-72
2022/06/14 02:35:07;;;;;;;;;;;22.00;46.00;;;;;;457365;260;1046;-72
2022/06/14 02:37:09;;;;;;;;;;;21.90;45.90;;;;;;457229;260;1218;-72
2022/06/14 02:39:10;;;;;;;;;;;21.90;46.00;;;;;;457387;259;1366;-72
2022/06/14 02:41:11;;;;;;;;;;;21.80;46.00;;;;;;457232;260;961;-72
2022/06/14 02:43:12;;;;;;;;;;;21.80;46.20;;;;;;457306;259;2123;-74
2022/06/14 02:45:13;;;;;;;;;;;21.60;46.40;;;;;;457307;259;1053;-72
2022/06/14 02:47:15;;;;;;;;;;;21.80;46.40;;;;;;457320;259;1307;-72
2022/06/14 02:49:16;;;;;;;;;;;21.70;46.30;;;;;;457318;260;1001;-72
2022/06/14 02:51:17;;;;;;;;;;;21.80;46.30;;;;;;457262;260;1237;-73
2022/06/14 02:53:20;;;;;;;;;;;21.80;46.20;;;;;;457372;259;1256;-72
2022/06/14 02:55:20;;;;;;;;;;;21.80;46.30;;;;;;457301;260;2042;-72
2022/06/14 02:57:22;;;;;;;;;;;21.80;46.20;;;;;;457234;259;1245;-72
2022/06/14 02:59:23;;;;;;;;;;;21.80;46.10;;;;;;457308;260;1127;-72
2022/06/14 03:01:24;;;;;;;;;;;21.80;46.10;;;;;;457203;260;1227;-72
2022/06/14 03:03:25;;;;;;;;;;;21.70;46.20;;;;;;457344;260;2166;-72
2022/06/14 03:05:27;;;;;;;;;;;21.90;46.10;;;;;;457257;260;1187;-72
2022/06/14 03:07:28;;;;;;;;;;;21.80;46.20;;;;;;457236;260;1336;-72
2022/06/14 03:09:31;;;;;;;;;;;21.90;46.00;;;;;;457266;260;1209;-72
2022/06/14 03:11:31;;;;;;;;;;;21.80;46.20;;;;;;457292;255;1265;-72
2022/06/14 03:13:33;;;;;;;;;;;21.90;45.90;;;;;;457429;259;1606;-72
2022/06/14 03:15:34;;;;;;;;;;;21.90;45.90;;;;;;457307;259;1286;-72
2022/06/14 03:17:35;;;;;;;;;;;21.80;46.00;;;;;;457275;259;1151;-72
2022/06/14 03:19:37;;;;;;;;;;;21.80;46.00;;;;;;457333;259;1063;-72
2022/06/14 03:21:38;;;;;;;;;;;21.90;45.90;;;;;;457301;259;1199;-72
2022/06/14 03:23:39;;;;;;;;;;;21.80;46.00;;;;;;457251;259;2143;-72
2022/06/14 03:25:41;;;;;;;;;;;21.70;46.00;;;;;;457337;260;1276;-72
2022/06/14 03:27:42;;;;;;;;;;;21.80;46.00;;;;;;457364;259;1178;-72
2022/06/14 03:29:43;;;;;;;;;;;21.90;46.00;;;;;;457295;260;967;-72
2022/06/14 03:31:45;;;;;;;;;;;21.90;45.90;;;;;;457304;260;1219;-72
2022/06/14 03:33:46;;;;;;;;;;;21.80;46.00;;;;;;457366;260;1228;-72
2022/06/14 03:35:47;;;;;;;;;;;21.80;45.90;;;;;;457395;259;1087;-72
2022/06/14 03:37:49;;;;;;;;;;;21.80;46.10;;;;;;457231;260;1300;-72
2022/06/14 03:39:50;;;;;;;;;;;21.70;46.10;;;;;;457313;259;1076;-72
2022/06/14 03:41:51;;;;;;;;;;;21.70;46.10;;;;;;457374;259;1189;-72
2022/06/14 03:43:53;;;;;;;;;;;21.60;46.20;;;;;;457293;259;2198;-72
2022/06/14 03:45:54;;;;;;;;;;;21.70;46.20;;;;;;457382;260;1287;-72
2022/06/14 03:47:55;;;;;;;;;;;21.60;46.20;;;;;;457355;260;1253;-72
2022/06/14 03:49:57;;;;;;;;;;;21.60;46.20;;;;;;457251;260;1116;-72
2022/06/14 03:51:58;;;;;;;;;;;21.50;46.60;;;;;;457201;260;1156;-72
2022/06/14 03:53:59;;;;;;;;;;;21.50;46.40;;;;;;457334;259;975;-72
2022/06/14 03:56:01;;;;;;;;;;;21.70;46.30;;;;;;457281;260;1234;-73
2022/06/14 03:58:02;;;;;;;;;;;21.60;46.20;;;;;;457292;259;1127;-72
2022/06/14 04:00:03;;;;;;;;;;;21.70;46.00;;;;;;457353;259;1006;-72
2022/06/14 04:02:05;;;;;;;;;;;21.70;46.10;;;;;;457259;260;1178;-72
2022/06/14 04:04:06;;;;;;;;;;;21.70;46.10;;;;;;457282;259;2222;-72
2022/06/14 04:06:08;;;;;;;;;;;21.70;46.00;;;;;;457245;256;1200;-72
2022/06/14 04:08:09;;;;;;;;;;;21.80;45.90;;;;;;457388;260;1242;-73
2022/06/14 04:10:10;;;;;;;;;;;21.70;45.90;;;;;;457307;259;1110;-72
2022/06/14 04:12:12;;;;;;;;;;;21.80;45.80;;;;;;457211;260;1144;-72
2022/06/14 04:14:13;;;;;;;;;;;21.80;45.90;;;;;;457257;259;1215;-72
2022/06/14 04:16:14;;;;;;;;;;;21.80;45.80;;;;;;457233;260;1237;-72
2022/06/14 04:20:35;;;;;;;;;;;21.80;45.90;;;;;;457183;261;1055;-71
2022/06/14 04:22:36;;;;;;;;;;;21.80;45.80;;;;;;457220;260;1129;-72
2022/06/14 04:24:38;;;;;;;;;;;21.80;45.70;;;;;;457253;260;2195;-72
2022/06/14 04:26:39;;;;;;;;;;;21.80;45.80;;;;;;457177;256;1197;-72
2022/06/14 04:28:40;;;;;;;;;;;21.80;45.80;;;;;;457189;259;1079;-72
2022/06/14 04:30:41;;;;;;;;;;;21.70;45.90;;;;;;457191;259;1050;-72
2022/06/14 04:32:43;;;;;;;;;;;21.80;45.80;;;;;;457200;260;1204;-72
2022/06/14 04:34:44;;;;;;;;;;;21.80;46.00;;;;;;457279;260;1103;-72
2022/06/14 04:36:46;;;;;;;;;;;21.90;45.80;;;;;;457039;259;1243;-72
2022/06/14 04:38:47;;;;;;;;;;;21.80;45.80;;;;;;457084;260;1148;-72
2022/06/14 04:40:48;;;;;;;;;;;21.80;45.80;;;;;;457170;260;1177;-72
2022/06/14 04:42:50;;;;;;;;;;;21.80;45.90;;;;;;457101;259;1174;-72
2022/06/14 04:44:51;;;;;;;;;;;21.80;45.90;;;;;;457173;260;2198;-72
2022/06/14 04:46:52;;;;;;;;;;;21.80;45.80;;;;;;457083;259;1174;-72
2022/06/14 04:48:54;;;;;;;;;;;21.70;46.10;;;;;;457136;259;1169;-72
2022/06/14 04:50:55;;;;;;;;;;;21.80;46.10;;;;;;457098;259;1195;-72
2022/06/14 04:52:56;;;;;;;;;;;21.70;46.10;;;;;;456969;260;1137;-72
2022/06/14 04:54:58;;;;;;;;;;;21.60;46.10;;;;;;457038;259;1122;-72
2022/06/14 04:56:59;;;;;;;;;;;21.40;46.80;;;;;;457093;260;1143;-72
2022/06/14 04:59:00;;;;;;;;;;;21.40;46.80;;;;;;457131;259;1121;-72
2022/06/14 05:01:02;;;;;;;;;;;21.50;46.60;;;;;;457017;259;1106;-72
2022/06/14 05:03:03;;;;;;;;;;;21.50;46.60;;;;;;457026;259;1064;-72
2022/06/14 05:05:04;;;;;;;;;;;21.50;46.60;;;;;;457132;259;2152;-72
2022/06/14 05:07:06;;;;;;;;;;;21.50;46.60;;;;;;457096;260;1083;-72
2022/06/14 05:09:08;;;;;;;;;;;21.40;46.70;;;;;;457082;259;1070;-71
2022/06/14 05:11:09;;;;;;;;;;;21.50;46.60;;;;;;457098;259;1335;-72
2022/06/14 05:13:10;;;;;;;;;;;21.50;46.60;;;;;;457096;259;1076;-72
2022/06/14 05:15:11;;;;;;;;;;;21.50;46.50;;;;;;457047;259;1060;-72
2022/06/14 05:17:13;;;;;;;;;;;21.50;46.60;;;;;;457178;259;1761;-72
2022/06/14 05:19:14;;;;;;;;;;;21.70;46.30;;;;;;457050;259;1295;-72
2022/06/14 05:21:15;;;;;;;;;;;21.60;46.40;;;;;;456970;259;1254;-72
2022/06/14 05:23:17;;;;;;;;;;;21.50;46.50;;;;;;456945;259;1098;-72
2022/06/14 05:25:18;;;;;;;;;;;21.70;46.30;;;;;;457001;259;2123;-72
2022/06/14 05:27:19;;;;;;;;;;;21.60;46.50;;;;;;456888;259;1196;-72
2022/06/14 05:29:22;;;;;;;;;;;21.60;46.50;;;;;;456871;260;1250;-72
2022/06/14 05:31:22;;;;;;;;;;;21.50;46.50;;;;;;457008;259;1422;-72
2022/06/14 05:33:24;;;;;;;;;;;21.60;46.50;;;;;;457012;259;1281;-72
2022/06/14 05:35:25;;;;;;;;;;;21.60;46.60;;;;;;456977;259;1207;-72
2022/06/14 05:37:26;;;;;;;;;;;21.50;46.70;;;;;;456753;261;1221;-72
2022/06/14 05:39:28;;;;;;;;;;;21.50;46.80;;;;;;456907;259;1193;-72
2022/06/14 05:41:29;;;;;;;;;;;21.50;46.90;;;;;;456910;259;1203;-72
2022/06/14 05:43:31;;;;;;;;;;;21.50;46.80;;;;;;456830;259;1124;-72
2022/06/14 05:45:32;;;;;;;;;;;21.50;46.90;;;;;;456894;260;2194;-72
2022/06/14 05:47:33;;;;;;;;;;;21.40;46.90;;;;;;456788;259;1097;-72
2022/06/14 05:49:35;;;;;;;;;;;21.40;47.10;;;;;;456795;260;1320;-72
2022/06/14 05:51:36;;;;;;;;;;;21.40;47.20;;;;;;456938;260;1262;-72
2022/06/14 05:53:37;;;;;;;;;;;21.40;47.10;;;;;;456921;260;1194;-72
2022/06/14 05:55:39;;;;;;;;;;;21.40;47.10;;;;;;456932;259;1252;-72
2022/06/14 05:57:40;;;;;;;;;;;21.50;47.10;;;;;;457024;260;1213;-72
2022/06/14 05:59:41;;;;;;;;;;;21.40;47.10;;;;;;456998;259;1121;-72
2022/06/14 06:01:43;;;;;;;;;;;21.30;47.60;;;;;;456845;260;1249;-72
2022/06/14 06:03:44;;;;;;;;;;;21.40;47.50;;;;;;456728;260;1195;-72
2022/06/14 06:05:45;;;;;;;;;;;21.50;47.10;;;;;;456788;259;2146;-72
2022/06/14 06:07:47;;;;;;;;;;;21.50;47.00;;;;;;456849;260;1267;-72
2022/06/14 06:09:48;;;;;;;;;;;21.60;46.90;;;;;;456839;259;1164;-72
2022/06/14 06:11:49;;;;;;;;;;;21.50;46.90;;;;;;456798;259;1212;-72
2022/06/14 06:13:51;;;;;;;;;;;21.50;46.80;;;;;;456785;259;1115;-72
2022/06/14 06:15:52;;;;;;;;;;;21.50;47.00;;;;;;456785;259;1403;-72
2022/06/14 06:17:53;;;;;;;;;;;21.50;47.10;;;;;;456814;260;1215;-72
2022/06/14 06:19:55;;;;;;;;;;;21.50;47.00;;;;;;456636;260;1360;-72
2022/06/14 06:21:56;;;;;;;;;;;21.50;47.10;;;;;;456572;259;1140;-72
2022/06/14 06:23:57;;;;;;;;;;;21.50;47.00;;;;;;456753;259;1092;-72
2022/06/14 06:25:59;;;;;;;;;;;21.50;46.90;;;;;;456704;260;2166;-72
2022/06/14 06:28:00;;;;;;;;;;;21.50;46.80;;;;;;456785;259;1141;-72
2022/06/14 06:30:01;;;;;;;;;;;21.50;46.70;;;;;;456782;259;1154;-72
2022/06/14 06:32:03;;;;;;;;;;;21.50;46.60;;;;;;456721;260;1205;-72
2022/06/14 06:34:04;;;;;;;;;;;21.50;46.90;;;;;;456729;260;1144;-72
2022/06/14 06:36:05;;;;;;;;;;;21.40;47.00;;;;;;456632;260;1131;-72
2022/06/14 06:38:07;;;;;;;;;;;21.50;47.00;;;;;;456346;259;1098;-72
2022/06/14 06:40:08;;;;;;;;;;;21.40;46.90;;;;;;456580;259;1079;-72
2022/06/14 06:42:09;;;;;;;;;;;21.50;47.00;;;;;;456825;259;1131;-72
2022/06/14 06:44:10;;;;;;;;;;;21.40;46.90;;;;;;456788;259;1127;-72
2022/06/14 06:46:12;;;;;;;;;;;21.30;46.90;;;;;;456626;260;2205;-72
2022/06/14 06:48:13;;;;;;;;;;;21.40;46.80;;;;;;456583;259;1123;-72
2022/06/14 06:50:15;;;;;;;;;;;21.40;46.90;;;;;;456383;260;1101;-72
2022/06/14 06:52:16;;;;;;;;;;;21.50;46.70;;;;;;456505;259;1135;-72
2022/06/14 06:54:17;;;;;;;;;;;21.50;46.80;;;;;;456508;260;1111;-72
2022/06/14 06:56:18;;;;;;;;;;;21.50;46.70;;;;;;456432;260;1204;-72
2022/06/14 06:58:20;;;;;;;;;;;21.50;46.80;;;;;;456506;259;1143;-72
2022/06/14 07:00:21;;;;;;;;;;;21.50;46.70;;;;;;456607;259;1391;-72
2022/06/14 07:02:23;;;;;;;;;;;21.40;46.70;;;;;;456636;259;1331;-72
2022/06/14 07:05:03;;;;;;;;;;;21.70;46.40;;;;;;456527;260;1207;-72
2022/06/14 07:06:25;;;;;;;;;;;21.40;46.60;;;;;;455194;261;2217;-72
2022/06/14 07:08:27;;;;;;;;;;;21.40;46.70;;;;;;456237;259;1295;-72
2022/06/14 07:10:28;;;;;;;;;;;21.30;46.90;;;;;;456216;256;1114;-72
2022/06/14 07:12:29;;;;;;;;;;;21.20;47.20;;;;;;456179;260;1128;-72
2022/06/14 07:14:31;;;;;;;;;;;21.40;47.10;;;;;;456343;260;1238;-72
2022/06/14 07:16:32;;;;;;;;;;;21.40;47.00;;;;;;456387;259;1404;-72
2022/06/14 07:18:33;;;;;;;;;;;21.30;47.20;;;;;;456396;260;1217;-72
2022/06/14 07:20:35;;;;;;;;;;;21.40;47.10;;;;;;456427;255;1182;-72
2022/06/14 07:22:36;;;;;;;;;;;21.30;47.10;;;;;;456386;259;1235;-72
2022/06/14 07:24:37;;;;;;;;;;;21.40;46.80;;;;;;456482;259;1191;-72
2022/06/14 07:26:39;;;;;;;;;;;21.40;46.80;;;;;;456347;259;1243;-72
2022/06/14 07:28:40;;;;;;;;;;;21.40;46.90;;;;;;456254;259;1219;-72
2022/06/14 07:30:41;;;;;;;;;;;21.40;47.00;;;;;;456022;259;1153;-72
2022/06/14 07:32:43;;;;;;;;;;;21.30;47.20;;;;;;455894;259;1192;-72
2022/06/14 07:34:44;;;;;;;;;;;21.40;47.20;;;;;;456109;260;1268;-72
2022/06/14 07:36:45;;;;;;;;;;;21.40;47.10;;;;;;456404;260;1235;-72
2022/06/14 07:38:47;;;;;;;;;;;21.50;47.00;;;;;;456547;260;1363;-71
2022/06/14 07:40:48;;;;;;;;;;;21.40;46.80;;;;;;456513;260;1364;-72
2022/06/14 07:42:50;;;;;;;;;;;21.50;46.80;;;;;;456459;259;1216;-72
2022/06/14 07:44:51;;;;;;;;;;;21.50;46.70;;;;;;456347;260;2218;-72
2022/06/14 07:46:52;;;;;;;;;;;21.40;47.00;;;;;;456310;260;1130;-72
2022/06/14 07:48:54;;;;;;;;;;;21.40;47.20;;;;;;456323;259;1264;-72
2022/06/14 07:50:55;;;;;;;;;;;21.40;47.10;;;;;;456224;260;1134;-72
2022/06/14 07:52:56;;;;;;;;;;;21.40;47.10;;;;;;456045;259;1247;-72
2022/06/14 07:54:58;;;;;;;;;;;21.50;47.10;;;;;;456135;259;1301;-72
2022/06/14 07:56:59;;;;;;;;;;;21.50;47.00;;;;;;456208;260;1313;-72
2022/06/14 07:59:00;;;;;;;;;;;21.40;47.00;;;;;;456363;259;1216;-72
2022/06/14 08:01:08;;;;;;;;;;;21.40;47.10;;;;;;456184;260;1200;-72
2022/06/14 08:03:09;;;;;;;;;;;21.50;47.00;;;;;;456103;259;1577;-72
2022/06/14 08:05:10;;;;;;;;;;;21.50;47.00;;;;;;456458;259;2206;-72
2022/06/14 08:07:12;;;;;;;;;;;21.50;47.00;;;;;;456231;259;1694;-72
2022/06/14 08:09:13;;;;;;;;;;;21.40;46.90;;;;;;456301;260;1214;-72
2022/06/14 08:11:14;;;;;;;;;;;21.30;47.00;;;;;;456293;259;1593;-72
2022/06/14 08:13:16;;;;;;;;;;;21.20;47.30;;;;;;456387;259;1315;-72
2022/06/14 08:15:17;;;;;;;;;;;21.30;47.30;;;;;;456253;260;1125;-72
2022/06/14 08:17:18;;;;;;;;;;;21.20;47.20;;;;;;456326;259;1242;-72
2022/06/14 08:19:20;;;;;;;;;;;21.40;47.10;;;;;;456199;256;1341;-72
2022/06/14 08:21:21;;;;;;;;;;;21.50;46.90;;;;;;456283;259;1157;-72
2022/06/14 08:23:25;;;;;;;;;;;21.50;46.80;;;;;;456158;259;1200;-72
2022/06/14 08:25:24;;;;;;;;;;;21.50;46.90;;;;;;455970;260;2226;-72
2022/06/14 08:27:26;;;;;;;;;;;21.50;46.80;;;;;;456174;259;1055;-71
2022/06/14 08:29:27;;;;;;;;;;;21.50;46.80;;;;;;456143;259;1280;-71
2022/06/14 08:31:30;;;;;;;;;;;21.60;46.70;;;;;;456077;260;1358;-72
2022/06/14 08:33:30;;;;;;;;;;;21.60;46.60;;;;;;456078;260;1317;-72
2022/06/14 08:35:31;;;;;;;;;;;21.70;46.40;;;;;;454716;259;1907;-72
2022/06/14 08:37:33;;;;;;;;;;;21.60;46.40;;;;;;462388;256;1203;-72
2022/06/14 08:39:34;;;;;;;;;;;21.50;46.60;;;;;;464657;254;1128;-72
2022/06/14 08:41:35;;;;;;;;;;;21.60;46.50;;;;;;464837;254;1183;-72
2022/06/14 08:43:37;;;;;;;;;;;21.50;46.50;;;;;;465503;254;1085;-72
2022/06/14 08:45:38;;;;;;;;;;;21.50;46.70;;;;;;464828;254;2198;-72
2022/06/14 08:47:40;;;;;;;;;;;21.50;46.50;;;;;;464953;254;1301;-72
2022/06/14 08:49:41;;;;;;;;;;;21.60;46.50;;;;;;464967;254;1184;-72
2022/06/14 08:51:42;;;;;;;;;;;21.70;46.30;;;;;;464881;252;1234;-72
2022/06/14 08:53:44;;;;;;;;;;;21.60;46.30;;;;;;464924;254;1183;-72
2022/06/14 08:55:45;;;;;;;;;;;21.60;46.40;;;;;;464893;254;1245;-72
2022/06/14 08:57:46;;;;;;;;;;;21.70;46.40;;;;;;465421;254;1167;-72
2022/06/14 08:59:48;;;;;;;;;;;21.60;46.40;;;;;;465447;254;1159;-72
2022/06/14 09:01:49;;;;;;;;;;;21.60;46.50;;;;;;464775;256;1117;-72
2022/06/14 09:03:50;;;;;;;;;;;21.70;46.50;;;;;;464584;254;1278;-72
2022/06/14 09:05:52;;;;;;;;;;;21.70;46.40;;;;;;465117;254;2209;-72
2022/06/14 09:07:53;;;;;;;;;;;21.70;46.20;;;;;;465115;254;1377;-72
2022/06/14 09:09:54;;;;;;;;;;;21.70;46.10;;;;;;465230;254;1054;-72
2022/06/14 09:11:56;;;;;;;;;;;21.70;46.10;;;;;;465217;254;1070;-72
2022/06/14 09:13:57;;;;;;;;;;;21.80;46.10;;;;;;464806;254;1018;-72
2022/06/14 09:15:58;;;;;;;;;;;21.80;46.20;;;;;;465005;254;1188;-72
2022/06/14 09:18:00;;;;;;;;;;;21.50;46.60;;;;;;465076;254;1094;-72
2022/06/14 09:20:01;;;;;;;;;;;21.50;46.70;;;;;;465063;254;1150;-72
2022/06/14 09:22:02;;;;;;;;;;;21.60;46.60;;;;;;464952;254;1082;-72
2022/06/14 09:24:04;;;;;;;;;;;21.80;46.40;;;;;;464744;254;1157;-72
2022/06/14 09:26:05;;;;;;;;;;;21.80;46.20;;;;;;464837;254;2201;-72
2022/06/14 09:28:06;;;;;;;;;;;21.80;46.20;;;;;;465006;254;1155;-72
2022/06/14 09:30:08;;;;;;;;;;;21.90;45.90;;;;;;465038;254;1088;-72
2022/06/14 09:32:09;;;;;;;;;;;21.90;45.90;;;;;;464894;254;1317;-72
2022/06/14 09:34:10;;;;;;;;;;;21.90;45.80;;;;;;464909;254;1062;-73
2022/06/14 09:36:12;;;;;;;;;;;21.90;45.80;;;;;;464866;254;1049;-72
2022/06/14 09:38:13;;;;;;;;;;;21.90;45.70;;;;;;464912;254;1151;-72
2022/06/14 09:40:14;;;;;;;;;;;22.00;45.60;;;;;;464993;254;1058;-72
2022/06/14 09:42:16;;;;;;;;;;;22.10;45.60;;;;;;464999;254;1592;-72
2022/06/14 09:44:17;;;;;;;;;;;22.00;45.50;;;;;;465024;254;1046;-72
2022/06/14 09:46:19;;;;;;;;;;;22.00;45.40;;;;;;464967;254;2221;-72
2022/06/14 09:48:20;;;;;;;;;;;21.80;45.70;;;;;;464839;252;1133;-72
2022/06/14 09:50:21;;;;;;;;;;;21.40;47.10;;;;;;464909;254;1258;-72
2022/06/14 09:52:23;;;;;;;;;;;21.20;48.30;;;;;;465028;254;1161;-72
2022/06/14 09:54:24;;;;;;;;;;;21.20;49.00;;;;;;464967;254;1141;-72
2022/06/14 09:56:25;;;;;;;;;;;21.20;49.20;;;;;;464882;254;1134;-72
2022/06/14 09:58:27;;;;;;;;;;;20.90;49.90;;;;;;464885;254;1207;-72
2022/06/14 10:00:28;;;;;;;;;;;20.90;50.20;;;;;;464902;254;1087;-72
2022/06/14 10:02:29;;;;;;;;;;;20.90;50.50;;;;;;464809;254;1306;-72
2022/06/14 10:04:31;;;;;;;;;;;20.70;50.80;;;;;;464732;254;1201;-73
2022/06/14 10:06:32;;;;;;;;;;;20.70;50.80;;;;;;464729;254;2214;-72
2022/06/14 10:08:33;;;;;;;;;;;20.60;50.90;;;;;;464300;254;1181;-72
2022/06/14 10:10:35;;;;;;;;;;;20.60;50.80;;;;;;464726;254;1190;-72
2022/06/14 10:12:36;;;;;;;;;;;20.70;50.70;;;;;;464630;254;1196;-72
2022/06/14 10:14:37;;;;;;;;;;;20.60;50.60;;;;;;464740;254;1213;-72
2022/06/14 10:16:39;;;;;;;;;;;20.60;50.60;;;;;;459155;254;1532;-72
2022/06/14 10:18:40;;;;;;;;;;;20.60;50.40;;;;;;449406;265;1193;-72
2022/06/14 10:20:41;;;;;;;;;;;20.50;50.40;;;;;;449386;265;1188;-72
2022/06/14 10:22:43;;;;;;;;;;;20.40;50.70;;;;;;449416;265;1222;-72
2022/06/14 10:24:44;;;;;;;;;;;20.40;50.80;;;;;;449386;265;1280;-72
2022/06/14 10:29:05;;;;;;;;;;;20.50;50.80;;;;;;449299;264;1193;-72
2022/06/14 10:31:07;;;;;;;;;;;20.70;50.00;;;;;;450008;265;1194;-72
2022/06/14 10:33:08;;;;;;;;;;;20.80;49.70;;;;;;449718;264;2229;-72
2022/06/14 10:35:09;;;;;;;;;;;21.10;49.20;;;;;;449480;265;1119;-72
2022/06/14 10:37:10;;;;;;;;;;;21.20;48.60;;;;;;449423;265;1165;-72
2022/06/14 10:39:12;;;;;;;;;;;21.40;48.10;;;;;;449358;265;1109;-72
2022/06/14 10:41:13;;;;;;;;;;;21.40;47.90;;;;;;449457;265;1089;-72
2022/06/14 10:43:14;;;;;;;;;;;21.50;47.70;;;;;;449377;265;1162;-72
2022/06/14 10:45:16;;;;;;;;;;;21.50;47.60;;;;;;449193;265;1155;-72
2022/06/14 10:47:17;;;;;;;;;;;21.60;47.50;;;;;;449051;264;2159;-72
2022/06/14 10:49:18;;;;;;;;;;;21.60;47.30;;;;;;449130;264;1255;-72
2022/06/14 10:51:20;;;;;;;;;;;21.60;47.40;;;;;;449141;265;1151;-72
2022/06/14 10:53:21;;;;;;;;;;;21.60;47.20;;;;;;449280;264;1211;-72
2022/06/14 10:55:22;;;;;;;;;;;21.70;47.10;;;;;;449171;265;1205;-72
2022/06/14 10:57:24;;;;;;;;;;;21.80;46.90;;;;;;449051;265;1100;-71
2022/06/14 10:59:25;;;;;;;;;;;21.80;46.70;;;;;;449145;265;1068;-72
2022/06/14 11:01:26;;;;;;;;;;;21.80;46.60;;;;;;449149;265;1361;-72
2022/06/14 11:03:28;;;;;;;;;;;21.80;46.50;;;;;;449393;265;1082;-72
2022/06/14 11:05:30;;;;;;;;;;;21.80;46.60;;;;;;449234;265;1159;-72
2022/06/14 11:07:31;;;;;;;;;;;21.90;46.40;;;;;;448977;265;2215;-72
2022/06/14 11:09:32;;;;;;;;;;;22.00;46.10;;;;;;448837;265;1377;-72
2022/06/14 11:11:34;;;;;;;;;;;21.60;46.70;;;;;;448902;265;1141;-72
2022/06/14 11:13:35;;;;;;;;;;;21.20;47.40;;;;;;449040;265;1095;-72
2022/06/14 11:15:36;;;;;;;;;;;21.10;48.00;;;;;;449049;265;1211;-72
2022/06/14 11:17:38;;;;;;;;;;;20.80;48.20;;;;;;449337;265;1296;-72
2022/06/14 11:19:39;;;;;;;;;;;20.80;48.40;;;;;;449563;265;1238;-72
2022/06/14 11:21:40;;;;;;;;;;;20.80;48.40;;;;;;449317;265;1184;-72
2022/06/14 11:23:42;;;;;;;;;;;20.60;48.60;;;;;;449400;265;1173;-72
2022/06/14 11:25:43;;;;;;;;;;;20.40;49.00;;;;;;449291;265;1319;-72
2022/06/14 11:27:44;;;;;;;;;;;20.40;49.20;;;;;;449110;265;2156;-72
2022/06/14 11:29:46;;;;;;;;;;;20.40;49.10;;;;;;448768;265;1135;-72
2022/06/14 11:31:47;;;;;;;;;;;20.30;49.40;;;;;;449200;265;1511;-71
2022/06/14 11:33:48;;;;;;;;;;;20.40;49.40;;;;;;449181;265;1140;-71
2022/06/14 11:35:49;;;;;;;;;;;20.40;49.30;;;;;;449452;265;1197;-72
2022/06/14 11:37:51;;;;;;;;;;;20.40;49.20;;;;;;450125;265;1101;-72
2022/06/14 11:39:52;;;;;;;;;;;20.50;49.00;;;;;;450070;265;1072;-72
2022/06/14 11:41:53;;;;;;;;;;;20.50;49.20;;;;;;450003;265;1175;-72
2022/06/14 11:43:55;;;;;;;;;;;20.50;48.80;;;;;;450072;265;1210;-72
2022/06/14 11:45:57;;;;;;;;;;;20.30;49.10;;;;;;450116;265;1152;-72
2022/06/14 11:47:58;;;;;;;;;;;20.40;49.20;;;;;;449499;265;2191;-72
2022/06/14 11:49:59;;;;;;;;;;;20.30;49.10;;;;;;449534;265;1255;-72
2022/06/14 11:52:00;;;;;;;;;;;20.40;49.20;;;;;;449517;265;1151;-72
2022/06/14 11:54:02;;;;;;;;;;;20.40;49.20;;;;;;449474;265;1127;-72
2022/06/14 11:56:03;;;;;;;;;;;20.50;49.00;;;;;;449534;265;1313;-72
2022/06/14 11:58:04;;;;;;;;;;;20.40;49.00;;;;;;449304;264;1215;-72
2022/06/14 12:00:06;;;;;;;;;;;20.40;49.00;;;;;;449368;265;1269;-72
2022/06/14 12:02:07;;;;;;;;;;;20.30;49.30;;;;;;449231;265;1193;-72
2022/06/14 12:04:08;;;;;;;;;;;20.30;49.30;;;;;;449244;265;1301;-72
2022/06/14 12:06:11;;;;;;;;;;;20.30;49.40;;;;;;449421;265;1182;-72
2022/06/14 12:08:11;;;;;;;;;;;20.30;49.40;;;;;;449459;264;2226;-72